createdAt,value
2023-03-31T00:00:54.430Z,3.60
2023-03-31T00:03:24.927Z,3.50
2023-03-31T00:06:00.901Z,3.30
2023-03-31T00:08:35.261Z,2.27
2023-03-31T00:11:07.424Z,3.17
2023-03-31T00:13:36.601Z,2.97
2023-03-31T00:16:10.294Z,2.00
2023-03-31T00:18:37.885Z,3.07
2023-03-31T00:21:14.327Z,2.30
2023-03-31T00:23:42.148Z,2.70
2023-03-31T00:26:09.052Z,2.57
2023-03-31T00:28:36.112Z,5.03
2023-03-31T00:31:04.462Z,3.20
2023-03-31T00:33:31.509Z,2.57
2023-03-31T00:36:01.881Z,2.10
2023-03-31T00:38:33.284Z,2.23
2023-03-31T00:41:01.728Z,2.33
2023-03-31T00:43:37.079Z,2.77
2023-03-31T00:46:27.416Z,2.10
2023-03-31T00:48:58.328Z,2.40
2023-03-31T00:51:35.503Z,3.33
2023-03-31T00:54:08.350Z,2.60
2023-03-31T00:56:46.407Z,1.97
2023-03-31T00:59:14.429Z,1.93
2023-03-31T01:01:48.123Z,3.83
2023-03-31T01:04:16.717Z,3.90
2023-03-31T01:07:09.590Z,2.23
2023-03-31T01:09:38.678Z,3.70
2023-03-31T01:12:10.777Z,3.50
2023-03-31T01:14:37.753Z,3.43
2023-03-31T01:17:09.521Z,2.50
2023-03-31T01:20:28.676Z,3.10
2023-03-31T01:23:54.627Z,2.63
2023-03-31T01:27:33.343Z,2.43
2023-03-31T01:30:55.463Z,1.90
2023-03-31T01:34:11.838Z,2.10
2023-03-31T01:37:25.326Z,2.30
2023-03-31T01:40:14.296Z,2.10
2023-03-31T01:43:09.977Z,2.43
2023-03-31T01:46:01.516Z,2.27
2023-03-31T01:49:02.746Z,2.40
2023-03-31T01:52:24.792Z,2.60
2023-03-31T01:55:12.102Z,2.63
2023-03-31T01:57:53.052Z,2.77
2023-03-31T02:00:40.029Z,2.70
2023-03-31T02:03:22.510Z,2.33
2023-03-31T02:06:08.609Z,2.30
2023-03-31T02:08:46.441Z,2.60
2023-03-31T02:11:14.380Z,3.20
2023-03-31T02:13:47.585Z,3.10
2023-03-31T02:16:25.135Z,2.87
2023-03-31T02:19:02.189Z,2.57
2023-03-31T02:21:39.014Z,2.37
2023-03-31T02:24:15.368Z,2.93
2023-03-31T02:27:04.773Z,2.60
2023-03-31T02:29:32.138Z,3.03
2023-03-31T02:32:35.752Z,2.10
2023-03-31T02:35:04.224Z,2.83
2023-03-31T02:37:31.766Z,2.77
2023-03-31T02:40:10.279Z,2.50
2023-03-31T02:42:42.062Z,2.17
2023-03-31T02:45:51.380Z,2.97
2023-03-31T02:48:27.270Z,2.87
2023-03-31T02:51:09.264Z,2.50
2023-03-31T02:54:49.272Z,2.80
2023-03-31T02:57:40.931Z,2.70
2023-03-31T03:00:31.532Z,2.83
2023-03-31T03:03:59.343Z,2.37
2023-03-31T03:06:59.361Z,2.40
2023-03-31T03:09:55.890Z,3.30
2023-03-31T03:12:45.016Z,2.40
2023-03-31T03:15:24.429Z,2.80
2023-03-31T03:17:54.485Z,3.03
2023-03-31T03:20:22.916Z,3.17
2023-03-31T03:22:50.129Z,2.80
2023-03-31T03:25:20.266Z,3.17
2023-03-31T03:27:47.808Z,3.20
2023-03-31T03:30:15.246Z,3.60
2023-03-31T03:32:42.748Z,2.77
2023-03-31T03:35:11.263Z,3.20
2023-03-31T03:37:38.834Z,3.00
2023-03-31T03:40:07.105Z,3.17
2023-03-31T03:42:35.920Z,3.17
2023-03-31T03:45:03.333Z,2.93
2023-03-31T03:47:30.282Z,2.87
2023-03-31T03:49:57.179Z,2.40
2023-03-31T03:52:24.086Z,2.93
2023-03-31T03:54:50.972Z,2.70
2023-03-31T03:57:18.003Z,2.80
2023-03-31T03:59:44.882Z,3.10
2023-03-31T04:02:12.095Z,3.00
2023-03-31T04:04:39.075Z,3.33
2023-03-31T04:07:06.075Z,3.73
2023-03-31T04:09:32.945Z,2.90
2023-03-31T04:12:00.308Z,3.73
2023-03-31T04:14:27.252Z,3.80
2023-03-31T04:16:56.172Z,3.50
2023-03-31T04:19:25.746Z,3.00
2023-03-31T04:21:58.810Z,2.93
2023-03-31T04:24:32.617Z,2.87
2023-03-31T04:27:02.615Z,3.03
2023-03-31T04:29:33.302Z,2.73
2023-03-31T04:32:00.984Z,3.70
2023-03-31T04:34:34.943Z,2.70
2023-03-31T04:37:03.466Z,2.10
2023-03-31T04:39:31.315Z,2.40
2023-03-31T04:42:00.740Z,2.40
2023-03-31T04:44:28.306Z,2.90
2023-03-31T04:46:56.275Z,2.60
2023-03-31T04:49:23.361Z,2.93
2023-03-31T04:51:50.782Z,2.47
2023-03-31T04:54:17.873Z,2.67
2023-03-31T04:56:44.882Z,2.80
2023-03-31T04:59:12.088Z,3.30
2023-03-31T05:01:39.114Z,2.83
2023-03-31T05:04:06.485Z,2.27
2023-03-31T05:06:34.002Z,3.20
2023-03-31T05:09:00.931Z,3.07
2023-03-31T05:11:28.826Z,2.73
2023-03-31T05:13:55.870Z,2.70
2023-03-31T05:16:22.805Z,2.77
2023-03-31T05:18:49.726Z,2.30
2023-03-31T05:21:20.800Z,3.00
2023-03-31T05:23:49.190Z,2.03
2023-03-31T05:26:16.489Z,2.67
2023-03-31T05:28:44.290Z,2.70
2023-03-31T05:31:12.823Z,2.83
2023-03-31T05:33:41.764Z,2.93
2023-03-31T05:36:13.696Z,2.83
2023-03-31T05:38:41.685Z,2.30
2023-03-31T05:41:10.942Z,3.50
2023-03-31T05:43:39.505Z,3.33
2023-03-31T05:46:07.370Z,2.90
2023-03-31T05:48:37.354Z,2.80
2023-03-31T05:51:05.338Z,2.90
2023-03-31T05:53:32.487Z,3.50
2023-03-31T05:56:04.259Z,3.90
2023-03-31T05:58:31.634Z,2.50
2023-03-31T06:01:22.859Z,3.50
2023-03-31T06:03:50.891Z,3.50
2023-03-31T06:06:18.188Z,4.13
2023-03-31T06:08:47.528Z,4.57
2023-03-31T06:11:20.277Z,3.30
2023-03-31T06:13:48.671Z,3.77
2023-03-31T06:16:18.017Z,4.37
2023-03-31T06:18:45.832Z,4.00
2023-03-31T06:21:17.387Z,4.60
2023-03-31T06:23:45.524Z,3.87
2023-03-31T06:26:19.148Z,4.00
2023-03-31T06:28:47.081Z,3.20
2023-03-31T06:31:19.226Z,4.47
2023-03-31T06:33:47.874Z,4.00
2023-03-31T06:36:19.570Z,5.30
2023-03-31T06:38:47.717Z,5.20
2023-03-31T06:41:18.596Z,4.77
2023-03-31T06:43:46.338Z,4.57
2023-03-31T06:46:13.940Z,4.60
2023-03-31T06:48:41.894Z,4.60
2023-03-31T06:51:09.733Z,6.07
2023-03-31T06:53:37.136Z,5.20
2023-03-31T06:56:07.268Z,5.10
2023-03-31T06:58:34.662Z,4.83
2023-03-31T07:01:06.402Z,5.07
2023-03-31T07:03:34.484Z,5.40
2023-03-31T07:06:01.640Z,5.13
2023-03-31T07:08:28.796Z,5.37
2023-03-31T07:10:59.969Z,5.23
2023-03-31T07:13:27.871Z,5.47
2023-03-31T07:15:56.417Z,5.50
2023-03-31T07:18:34.494Z,5.53
2023-03-31T07:21:04.417Z,5.80
2023-03-31T07:23:32.802Z,5.20
2023-03-31T07:26:02.613Z,6.80
2023-03-31T07:28:31.781Z,7.13
2023-03-31T07:30:59.003Z,5.97
2023-03-31T07:33:26.054Z,6.57
2023-03-31T07:36:07.802Z,6.03
2023-03-31T07:38:38.940Z,6.70
2023-03-31T07:41:09.711Z,6.63
2023-03-31T07:43:37.319Z,6.50
2023-03-31T07:46:05.904Z,6.40
2023-03-31T07:48:34.158Z,6.30
2023-03-31T07:51:01.493Z,6.27
2023-03-31T07:53:28.413Z,6.07
2023-03-31T07:55:55.519Z,6.87
2023-03-31T07:58:22.408Z,6.23
2023-03-31T08:03:55.662Z,7.43
2023-03-31T08:06:26.279Z,6.40
2023-03-31T08:08:53.434Z,7.13
2023-03-31T08:11:21.220Z,5.70
2023-03-31T08:13:48.866Z,6.60
2023-03-31T08:16:15.897Z,6.73
2023-03-31T08:18:43.085Z,6.90
2023-03-31T08:21:10.212Z,6.90
2023-03-31T08:23:37.516Z,8.40
2023-03-31T08:26:18.168Z,6.73
2023-03-31T08:28:48.934Z,6.87
2023-03-31T08:31:18.507Z,7.53
2023-03-31T08:33:47.274Z,7.67
2023-03-31T08:36:14.680Z,7.60
2023-03-31T08:38:47.983Z,8.60
2023-03-31T08:41:42.708Z,7.20
2023-03-31T08:44:22.145Z,7.77
2023-03-31T08:46:55.002Z,7.33
2023-03-31T08:49:24.357Z,6.70
2023-03-31T08:51:59.668Z,7.20
2023-03-31T08:54:38.682Z,6.20
2023-03-31T08:57:20.647Z,6.67
2023-03-31T08:59:47.692Z,6.70
2023-03-31T09:02:57.817Z,7.33
2023-03-31T09:06:24.002Z,8.27
2023-03-31T09:09:03.108Z,7.77
2023-03-31T09:11:48.577Z,5.83
2023-03-31T09:14:42.299Z,6.50
2023-03-31T09:17:21.455Z,6.90
2023-03-31T09:19:59.946Z,5.97
2023-03-31T09:22:37.174Z,6.27
2023-03-31T09:25:27.100Z,5.53
2023-03-31T09:28:00.221Z,4.63
2023-03-31T09:30:35.755Z,4.77
2023-03-31T09:33:18.991Z,4.90
2023-03-31T09:35:46.725Z,4.77
2023-03-31T09:38:16.121Z,5.50
2023-03-31T09:40:43.628Z,4.30
2023-03-31T09:43:28.963Z,4.70
2023-03-31T09:46:14.688Z,4.17
2023-03-31T09:49:02.226Z,4.10
2023-03-31T09:51:37.256Z,4.20
2023-03-31T09:54:24.412Z,3.73
2023-03-31T09:56:53.764Z,4.20
2023-03-31T09:59:36.076Z,3.70
2023-03-31T10:02:29.734Z,3.20
2023-03-31T10:04:57.077Z,3.30
2023-03-31T10:07:26.229Z,3.17
2023-03-31T10:09:55.578Z,2.60
2023-03-31T10:12:31.906Z,2.40
2023-03-31T10:15:28.475Z,2.40
2023-03-31T10:17:59.448Z,2.40
2023-03-31T10:20:48.681Z,3.33
2023-03-31T10:23:33.885Z,2.17
2023-03-31T10:26:04.702Z,2.10
2023-03-31T10:28:36.055Z,2.00
2023-03-31T10:31:04.860Z,2.57
2023-03-31T10:33:37.595Z,2.67
2023-03-31T10:36:27.606Z,3.07
2023-03-31T10:38:56.537Z,1.93
2023-03-31T10:41:30.799Z,2.60
2023-03-31T10:44:02.377Z,2.20
2023-03-31T10:46:52.676Z,2.33
2023-03-31T10:49:22.572Z,2.13
2023-03-31T10:52:02.874Z,2.17
2023-03-31T10:54:29.868Z,1.90
2023-03-31T10:57:03.300Z,2.80
2023-03-31T11:00:18.941Z,2.53
2023-03-31T11:03:36.142Z,1.80
2023-03-31T11:06:57.935Z,2.20
2023-03-31T11:10:10.601Z,2.60
2023-03-31T11:12:49.665Z,1.97
2023-03-31T11:15:45.657Z,2.20
2023-03-31T11:18:52.757Z,2.13
2023-03-31T11:22:14.412Z,1.50
2023-03-31T11:25:25.641Z,2.20
2023-03-31T11:28:37.118Z,1.80
2023-03-31T11:31:37.168Z,2.00
2023-03-31T11:34:40.681Z,1.77
2023-03-31T11:37:45.690Z,1.80
2023-03-31T11:40:46.052Z,1.93
2023-03-31T11:43:50.348Z,1.90
2023-03-31T11:46:41.257Z,1.70
2023-03-31T11:49:30.800Z,1.73
2023-03-31T11:52:09.938Z,1.53
2023-03-31T11:54:59.061Z,1.57
2023-03-31T11:57:36.273Z,1.60
2023-03-31T12:00:23.468Z,1.60
2023-03-31T12:03:37.132Z,1.57
2023-03-31T12:06:18.910Z,1.40
2023-03-31T12:09:36.797Z,1.60
2023-03-31T12:12:22.204Z,1.23
2023-03-31T12:15:12.841Z,1.00
2023-03-31T12:17:47.127Z,1.07
2023-03-31T12:20:41.433Z,1.13
2023-03-31T12:23:40.644Z,1.30
2023-03-31T12:27:14.097Z,1.73
2023-03-31T12:29:58.354Z,1.47
2023-03-31T12:32:39.817Z,1.97
2023-03-31T12:35:29.056Z,2.63
2023-03-31T12:38:05.620Z,1.70
2023-03-31T12:41:09.038Z,1.67
2023-03-31T12:44:09.316Z,1.53
2023-03-31T12:46:59.534Z,1.03
2023-03-31T12:49:56.492Z,1.87
2023-03-31T12:53:18.534Z,1.50
2023-03-31T12:55:58.612Z,1.03
2023-03-31T12:58:32.927Z,2.07
2023-03-31T13:01:24.543Z,1.47
2023-03-31T13:04:21.839Z,1.57
2023-03-31T13:06:59.309Z,1.43
2023-03-31T13:09:47.887Z,1.80
2023-03-31T13:12:20.965Z,1.43
2023-03-31T13:14:54.369Z,2.13
2023-03-31T13:17:56.308Z,1.83
2023-03-31T13:20:40.747Z,2.13
2023-03-31T13:23:28.499Z,1.77
2023-03-31T13:25:58.505Z,2.20
2023-03-31T13:29:16.366Z,1.80
2023-03-31T13:32:02.736Z,1.60
2023-03-31T13:34:54.530Z,1.90
2023-03-31T13:38:04.082Z,1.40
2023-03-31T13:41:19.474Z,1.27
2023-03-31T13:44:25.453Z,1.60
2023-03-31T13:47:40.319Z,1.77
2023-03-31T13:50:58.235Z,1.90
2023-03-31T13:54:12.131Z,2.30
2023-03-31T13:58:05.386Z,2.30
2023-03-31T14:01:25.546Z,1.90
2023-03-31T14:04:56.629Z,3.03
2023-03-31T14:07:38.216Z,1.80
2023-03-31T14:10:07.137Z,1.73
2023-03-31T14:12:38.277Z,1.53
2023-03-31T14:15:12.488Z,1.20
2023-03-31T14:17:41.622Z,1.80
2023-03-31T14:20:39.657Z,1.53
2023-03-31T14:23:44.311Z,1.40
2023-03-31T14:26:38.112Z,1.50
2023-03-31T14:29:59.825Z,1.53
2023-03-31T14:32:47.236Z,1.20
2023-03-31T14:35:42.885Z,1.30
2023-03-31T14:38:23.403Z,1.30
2023-03-31T14:40:56.178Z,1.40
2023-03-31T14:43:30.161Z,1.47
2023-03-31T14:46:05.420Z,1.20
2023-03-31T14:48:48.510Z,1.37
2023-03-31T14:51:30.768Z,1.43
2023-03-31T14:54:02.319Z,1.33
2023-03-31T14:56:41.033Z,1.20
2023-03-31T14:59:09.475Z,1.60
2023-03-31T15:01:38.497Z,1.30
2023-03-31T15:04:16.240Z,1.43
2023-03-31T15:06:48.674Z,1.57
2023-03-31T15:09:35.414Z,1.00
2023-03-31T15:12:14.779Z,1.40
2023-03-31T15:14:54.842Z,1.50
2023-03-31T15:17:32.944Z,1.67
2023-03-31T15:20:20.491Z,1.50
2023-03-31T15:22:47.386Z,1.37
2023-03-31T15:25:18.273Z,1.33
2023-03-31T15:28:06.560Z,1.93
2023-03-31T15:30:35.600Z,1.47
2023-03-31T15:33:19.245Z,1.00
2023-03-31T15:35:47.581Z,1.40
2023-03-31T15:38:19.215Z,1.50
2023-03-31T15:40:57.774Z,1.90
2023-03-31T15:43:32.736Z,1.60
2023-03-31T15:46:01.791Z,2.13
2023-03-31T15:48:37.693Z,2.37
2023-03-31T15:51:32.989Z,1.50
2023-03-31T15:54:01.362Z,2.13
2023-03-31T15:56:44.979Z,1.53
2023-03-31T15:59:37.946Z,2.90
2023-03-31T16:02:22.344Z,4.00
2023-03-31T16:04:59.646Z,3.90
2023-03-31T16:07:36.477Z,2.67
2023-03-31T16:10:07.030Z,3.43
2023-03-31T16:12:51.276Z,2.90
2023-03-31T16:15:44.589Z,10.87
2023-03-31T16:18:31.197Z,3.07
2023-03-31T16:21:05.592Z,1.80
2023-03-31T16:23:41.000Z,2.27
2023-03-31T16:26:08.779Z,3.63
2023-03-31T16:28:38.178Z,3.20
2023-03-31T16:31:34.655Z,2.40
2023-03-31T16:34:10.726Z,1.50
2023-03-31T16:36:38.524Z,2.10
2023-03-31T16:39:06.876Z,2.80
2023-03-31T16:41:37.434Z,3.60
2023-03-31T16:44:06.105Z,3.87
2023-03-31T16:46:33.404Z,2.23
2023-03-31T16:49:00.542Z,1.80
2023-03-31T16:51:27.569Z,1.30
2023-03-31T16:53:55.516Z,2.53
2023-03-31T16:56:23.798Z,3.90
2023-03-31T16:58:50.820Z,2.57
2023-03-31T17:01:17.709Z,3.87
2023-03-31T17:03:44.950Z,3.70
2023-03-31T17:06:13.692Z,4.23
2023-03-31T17:08:41.092Z,3.37
2023-03-31T17:11:14.164Z,8.73
2023-03-31T17:13:43.580Z,3.97
2023-03-31T17:18:42.248Z,3.63
2023-03-31T17:21:14.474Z,2.47
2023-03-31T17:23:42.653Z,2.23
2023-03-31T17:26:12.698Z,3.90
2023-03-31T17:28:41.434Z,3.80
2023-03-31T17:31:19.775Z,1.20
2023-03-31T17:33:47.429Z,1.23
2023-03-31T17:36:15.488Z,1.17
2023-03-31T17:38:42.641Z,1.33
2023-03-31T17:41:13.077Z,1.20
2023-03-31T17:43:44.330Z,1.57
2023-03-31T17:46:12.882Z,1.57
2023-03-31T17:48:41.917Z,1.67
2023-03-31T17:51:18.822Z,8.13
2023-03-31T17:53:48.064Z,7.07
2023-03-31T17:56:17.152Z,2.90
2023-03-31T17:58:45.557Z,3.50
2023-03-31T18:01:14.105Z,3.57
2023-03-31T18:03:42.093Z,2.40
2023-03-31T18:06:13.194Z,2.27
2023-03-31T18:08:42.022Z,3.30
2023-03-31T18:11:10.571Z,3.00
2023-03-31T18:13:37.908Z,1.53
2023-03-31T18:16:12.861Z,2.90
2023-03-31T18:18:40.417Z,1.93
2023-03-31T18:21:13.312Z,2.10
2023-03-31T18:23:41.365Z,4.00
2023-03-31T18:26:11.910Z,2.80
2023-03-31T18:28:40.765Z,2.60
2023-03-31T18:31:09.698Z,3.50
2023-03-31T18:33:37.458Z,2.27
2023-03-31T18:36:06.890Z,3.10
2023-03-31T18:38:36.679Z,1.40
2023-03-31T18:41:03.593Z,1.70
2023-03-31T18:43:32.076Z,2.70
2023-03-31T18:46:01.227Z,1.70
2023-03-31T18:48:28.261Z,2.00
2023-03-31T18:50:55.247Z,1.90
2023-03-31T18:53:24.168Z,1.50
2023-03-31T18:56:02.695Z,1.80
2023-03-31T18:58:31.727Z,1.83
2023-03-31T19:01:01.182Z,2.10
2023-03-31T19:03:28.881Z,2.60
2023-03-31T19:06:10.225Z,1.37
2023-03-31T19:08:38.090Z,1.70
2023-03-31T19:11:16.846Z,1.60
2023-03-31T19:13:44.472Z,1.53
2023-03-31T19:16:13.426Z,1.13
2023-03-31T19:18:40.880Z,1.37
2023-03-31T19:21:07.883Z,1.30
2023-03-31T19:23:34.819Z,2.47
2023-03-31T19:26:02.888Z,1.10
2023-03-31T19:28:31.424Z,1.20
2023-03-31T19:30:59.291Z,1.43
2023-03-31T19:33:27.470Z,1.30
2023-03-31T19:35:54.792Z,1.20
2023-03-31T19:38:22.348Z,2.00
2023-03-31T19:40:50.000Z,1.60
2023-03-31T19:43:23.154Z,1.40
2023-03-31T19:45:57.437Z,1.73
2023-03-31T19:48:26.413Z,1.27
2023-03-31T19:50:59.569Z,1.03
2023-03-31T19:53:27.770Z,1.60
2023-03-31T19:56:11.876Z,2.40
2023-03-31T19:58:40.519Z,1.40
2023-03-31T20:01:17.732Z,1.40
2023-03-31T20:03:45.371Z,1.87
2023-03-31T20:06:14.968Z,1.73
2023-03-31T20:08:43.723Z,1.00
2023-03-31T20:11:15.116Z,1.20
2023-03-31T20:13:45.610Z,1.33
2023-03-31T20:16:18.869Z,1.00
2023-03-31T20:18:53.843Z,1.00
2023-03-31T20:21:27.143Z,1.20
2023-03-31T20:23:56.246Z,0.90
2023-03-31T20:26:30.498Z,1.07
2023-03-31T20:29:02.419Z,0.90
2023-03-31T20:31:39.085Z,1.50
2023-03-31T20:34:12.627Z,0.90
2023-03-31T20:36:42.399Z,1.60
2023-03-31T20:39:12.530Z,1.13
2023-03-31T20:41:39.993Z,0.90
2023-03-31T20:44:13.513Z,2.50
2023-03-31T20:46:44.108Z,3.90
2023-03-31T20:49:11.902Z,1.30
2023-03-31T20:51:39.597Z,1.43
2023-03-31T20:54:07.990Z,1.77
2023-03-31T20:56:41.308Z,1.10
2023-03-31T20:59:15.066Z,1.03
2023-03-31T21:01:44.997Z,1.10
2023-03-31T21:04:12.230Z,0.80
2023-03-31T21:06:44.441Z,1.17
2023-03-31T21:09:13.415Z,1.00
2023-03-31T21:11:41.299Z,0.80
2023-03-31T21:14:16.686Z,1.10
2023-03-31T21:16:44.385Z,1.10
2023-03-31T21:19:11.968Z,0.93
2023-03-31T21:21:41.005Z,1.20
2023-03-31T21:24:11.670Z,1.47
2023-03-31T21:26:39.848Z,0.80
2023-03-31T21:29:07.539Z,1.10
2023-03-31T21:31:34.879Z,1.00
2023-03-31T21:34:02.521Z,1.10
2023-03-31T21:36:29.679Z,1.20
2023-03-31T21:38:57.729Z,0.90
2023-03-31T21:41:31.265Z,1.13
2023-03-31T21:44:01.759Z,1.30
2023-03-31T21:46:33.198Z,1.10
2023-03-31T21:49:01.525Z,1.43
2023-03-31T21:51:29.022Z,1.17
2023-03-31T21:53:56.774Z,1.00
2023-03-31T21:56:32.159Z,1.10
2023-03-31T21:59:01.313Z,1.47
2023-03-31T22:01:28.597Z,1.20
2023-03-31T22:03:55.501Z,1.10
2023-03-31T22:06:22.594Z,1.40
2023-03-31T22:08:49.767Z,1.30
2023-03-31T22:11:16.741Z,1.40
2023-03-31T22:13:43.829Z,1.33
2023-03-31T22:16:28.924Z,1.50
2023-03-31T22:18:55.900Z,1.60
2023-03-31T22:21:27.057Z,1.60
2023-03-31T22:23:59.385Z,1.70
2023-03-31T22:26:29.352Z,1.17
2023-03-31T22:28:57.354Z,1.60
2023-03-31T22:31:26.149Z,1.43
2023-03-31T22:33:53.193Z,1.60
2023-03-31T22:36:21.064Z,2.50
2023-03-31T22:38:48.379Z,1.60
2023-03-31T22:41:15.554Z,1.50
2023-03-31T22:43:45.269Z,1.63
2023-03-31T22:46:13.576Z,1.50
2023-03-31T22:48:40.601Z,1.30
2023-03-31T22:51:08.621Z,1.50
2023-03-31T22:53:35.495Z,1.93
2023-03-31T22:56:11.778Z,1.80
2023-03-31T22:58:39.122Z,1.83
2023-03-31T23:01:09.591Z,1.37
2023-03-31T23:03:36.679Z,1.70
2023-03-31T23:06:07.517Z,1.43
2023-03-31T23:08:36.828Z,1.40
2023-03-31T23:11:08.048Z,1.40
2023-03-31T23:13:35.931Z,1.50
2023-03-31T23:16:10.084Z,1.50
2023-03-31T23:18:39.247Z,1.83
2023-03-31T23:21:07.091Z,1.60
2023-03-31T23:23:34.232Z,1.40
2023-03-31T23:26:03.939Z,1.33
2023-03-31T23:28:33.061Z,1.80
2023-03-31T23:31:00.387Z,1.40
2023-03-31T23:33:30.360Z,1.83
2023-03-31T23:36:05.669Z,1.83
2023-03-31T23:38:33.592Z,1.80
2023-03-31T23:41:03.483Z,1.80
2023-03-31T23:43:32.308Z,2.03
2023-03-31T23:45:59.242Z,1.43
2023-03-31T23:48:26.339Z,1.17
2023-03-31T23:50:53.207Z,1.63
2023-03-31T23:53:20.137Z,2.00
2023-03-31T23:56:02.605Z,1.93
2023-03-31T23:58:31.158Z,1.53
